createdAt,value
2022-11-23T00:01:24.051Z,99433.82
2022-11-23T00:03:55.298Z,99428.69
2022-11-23T00:06:26.158Z,99433.99
2022-11-23T00:08:56.536Z,99437.91
2022-11-23T00:11:27.834Z,99434.41
2022-11-23T00:13:58.364Z,99435.79
2022-11-23T00:16:29.734Z,99423.55
2022-11-23T00:19:01.107Z,99415.00
2022-11-23T00:21:32.306Z,99415.09
2022-11-23T00:24:03.072Z,99415.73
2022-11-23T00:26:33.501Z,99419.54
2022-11-23T00:29:03.947Z,99425.85
2022-11-23T00:31:34.401Z,99432.21
2022-11-23T00:34:04.855Z,99427.11
2022-11-23T00:36:35.334Z,99428.14
2022-11-23T00:39:05.788Z,99432.26
2022-11-23T00:41:36.342Z,99432.23
2022-11-23T00:44:07.996Z,99432.46
2022-11-23T00:46:38.426Z,99435.74
2022-11-23T00:49:08.853Z,99436.79
2022-11-23T00:51:39.383Z,99438.69
2022-11-23T00:54:13.289Z,99436.19
2022-11-23T00:56:43.743Z,99441.34
2022-11-23T00:59:14.170Z,99446.56
2022-11-23T01:01:45.024Z,99453.84
2022-11-23T01:04:15.794Z,99460.95
2022-11-23T01:06:46.196Z,99455.11
2022-11-23T01:09:21.767Z,99450.48
2022-11-23T01:11:53.665Z,99449.41
2022-11-23T01:14:27.205Z,99452.52
2022-11-23T01:16:57.556Z,99451.11
2022-11-23T01:19:28.099Z,99447.27
2022-11-23T01:21:58.564Z,99444.66
2022-11-23T01:24:28.993Z,99440.59
2022-11-23T01:26:59.394Z,99441.05
2022-11-23T01:29:31.290Z,99441.63
2022-11-23T01:32:04.243Z,99438.52
2022-11-23T01:34:34.848Z,99440.36
2022-11-23T01:37:05.275Z,99438.66
2022-11-23T01:39:36.113Z,99436.70
2022-11-23T01:42:08.740Z,99438.69
2022-11-23T01:44:39.808Z,99443.36
2022-11-23T01:47:10.978Z,99446.56
2022-11-23T01:49:42.534Z,99450.98
2022-11-23T01:52:15.879Z,99452.32
2022-11-23T01:54:47.776Z,99454.57
2022-11-23T01:57:20.572Z,99456.89
2022-11-23T01:59:52.113Z,99459.69
2022-11-23T02:02:22.734Z,99461.16
2022-11-23T02:04:54.775Z,99459.02
2022-11-23T02:07:26.510Z,99459.08
2022-11-23T02:09:57.116Z,99454.36
2022-11-23T02:12:28.437Z,99456.86
2022-11-23T02:14:58.992Z,99452.16
2022-11-23T02:17:29.444Z,99449.63
2022-11-23T02:20:04.483Z,99445.98
2022-11-23T02:22:39.141Z,99447.58
2022-11-23T02:25:17.425Z,99450.42
2022-11-23T02:27:48.257Z,99444.42
2022-11-23T02:30:19.501Z,99445.87
2022-11-23T02:32:50.495Z,99446.73
2022-11-23T02:35:21.331Z,99446.52
2022-11-23T02:37:52.705Z,99450.48
2022-11-23T02:40:26.462Z,99448.80
2022-11-23T02:45:48.922Z,99458.91
2022-11-23T02:48:19.862Z,99458.46
2022-11-23T02:50:50.313Z,99456.12
2022-11-23T02:53:20.794Z,99455.31
2022-11-23T02:55:51.247Z,99452.98
2022-11-23T02:58:22.108Z,99457.14
2022-11-23T03:00:52.586Z,99456.06
2022-11-23T03:03:23.425Z,99460.45
2022-11-23T03:05:53.801Z,99468.69
2022-11-23T03:08:24.331Z,99476.83
2022-11-23T03:10:54.886Z,99480.47
2022-11-23T03:13:27.365Z,99484.41
2022-11-23T03:15:57.998Z,99481.15
2022-11-23T03:18:30.393Z,99482.38
2022-11-23T03:21:04.322Z,99476.45
2022-11-23T03:23:35.111Z,99474.36
2022-11-23T03:26:12.886Z,99475.84
2022-11-23T03:28:49.867Z,99473.60
2022-11-23T03:31:20.474Z,99472.96
2022-11-23T03:33:52.874Z,99472.59
2022-11-23T03:36:23.512Z,99468.34
2022-11-23T03:38:54.588Z,99475.27
2022-11-23T03:41:37.366Z,99475.77
2022-11-23T03:44:08.107Z,99476.59
2022-11-23T03:46:38.630Z,99471.14
2022-11-23T03:49:09.110Z,99469.52
2022-11-23T03:51:40.074Z,99473.15
2022-11-23T03:54:11.482Z,99472.92
2022-11-23T03:56:42.183Z,99468.14
2022-11-23T03:59:12.645Z,99462.92
2022-11-23T04:01:43.101Z,99456.72
2022-11-23T04:04:19.994Z,99453.70
2022-11-23T04:07:10.709Z,99448.19
2022-11-23T04:09:53.080Z,99445.06
2022-11-23T04:12:41.221Z,99444.16
2022-11-23T04:15:11.956Z,99444.60
2022-11-23T04:17:42.920Z,99444.42
2022-11-23T04:20:14.469Z,99440.77
2022-11-23T04:22:44.928Z,99450.14
2022-11-23T04:25:15.664Z,99442.23
2022-11-23T04:27:46.217Z,99449.50
2022-11-23T04:30:17.617Z,99453.77
2022-11-23T04:32:48.172Z,99455.92
2022-11-23T04:35:19.802Z,99451.65
2022-11-23T04:37:51.717Z,99442.05
2022-11-23T04:40:22.348Z,99434.70
2022-11-23T04:43:06.728Z,99435.41
2022-11-23T04:45:40.636Z,99434.39
2022-11-23T04:48:15.108Z,99428.48
2022-11-23T04:50:47.009Z,99428.04
2022-11-23T04:53:20.574Z,99433.80
2022-11-23T04:55:51.840Z,99428.86
2022-11-23T04:58:22.373Z,99430.20
2022-11-23T05:00:55.988Z,99427.79
2022-11-23T05:03:27.273Z,99428.72
2022-11-23T05:05:59.993Z,99429.35
2022-11-23T05:08:32.973Z,99427.68
2022-11-23T05:11:22.578Z,99429.65
2022-11-23T05:13:54.121Z,99435.07
2022-11-23T05:16:25.112Z,99431.44
2022-11-23T05:18:56.053Z,99429.11
2022-11-23T05:21:27.376Z,99422.98
2022-11-23T05:23:58.570Z,99419.70
2022-11-23T05:26:30.686Z,99421.13
2022-11-23T05:29:01.139Z,99421.39
2022-11-23T05:31:31.592Z,99421.83
2022-11-23T05:34:02.170Z,99424.33
2022-11-23T05:36:42.407Z,99424.83
2022-11-23T05:39:13.706Z,99429.30
2022-11-23T05:41:44.284Z,99429.16
2022-11-23T05:44:26.770Z,99427.95
2022-11-23T05:46:57.497Z,99432.53
2022-11-23T05:49:28.519Z,99427.28
2022-11-23T05:51:59.921Z,99428.71
2022-11-23T05:54:30.632Z,99431.09
2022-11-23T05:57:09.148Z,99436.64
2022-11-23T05:59:42.443Z,99431.70
2022-11-23T06:02:16.147Z,99440.78
2022-11-23T06:04:46.907Z,99441.48
2022-11-23T06:07:20.124Z,99440.14
2022-11-23T06:10:03.049Z,99443.77
2022-11-23T06:12:34.137Z,99444.13
2022-11-23T06:15:05.724Z,99447.96
2022-11-23T06:17:36.554Z,99447.08
2022-11-23T06:20:10.360Z,99446.34
2022-11-23T06:22:44.626Z,99452.02
2022-11-23T06:25:19.099Z,99454.90
2022-11-23T06:27:58.855Z,99454.42
2022-11-23T06:30:33.086Z,99452.05
2022-11-23T06:33:07.560Z,99451.85
2022-11-23T06:35:52.810Z,99451.68
2022-11-23T06:38:23.930Z,99458.39
2022-11-23T06:41:01.839Z,99457.88
2022-11-23T06:43:33.308Z,99462.45
2022-11-23T06:46:06.967Z,99463.14
2022-11-23T06:48:40.615Z,99470.15
2022-11-23T06:51:11.528Z,99469.55
2022-11-23T06:53:42.016Z,99471.33
2022-11-23T06:56:13.278Z,99467.96
2022-11-23T06:58:43.860Z,99466.39
2022-11-23T07:01:17.217Z,99467.51
2022-11-23T07:03:53.664Z,99474.44
2022-11-23T07:06:29.401Z,99478.10
2022-11-23T07:09:03.031Z,99479.67
2022-11-23T07:11:55.679Z,99485.07
2022-11-23T07:14:26.157Z,99484.79
2022-11-23T07:16:58.988Z,99478.63
2022-11-23T07:19:29.747Z,99485.89
2022-11-23T07:22:02.312Z,99485.27
2022-11-23T07:24:39.501Z,99486.11
2022-11-23T07:27:12.094Z,99493.42
2022-11-23T07:29:42.533Z,99493.75
2022-11-23T07:32:15.097Z,99494.33
2022-11-23T07:34:45.600Z,99503.23
2022-11-23T07:37:16.871Z,99504.68
2022-11-23T07:40:03.482Z,99501.02
2022-11-23T07:42:41.469Z,99503.83
2022-11-23T07:45:14.807Z,99500.77
2022-11-23T07:47:48.227Z,99502.35
2022-11-23T07:50:18.629Z,99508.85
2022-11-23T07:52:48.955Z,99511.15
2022-11-23T07:55:19.408Z,99512.40
2022-11-23T07:57:52.566Z,99512.34
2022-11-23T08:00:25.147Z,99514.21
2022-11-23T08:03:26.180Z,99520.66
2022-11-23T08:05:46.313Z,99523.00
2022-11-23T08:08:16.716Z,99526.99
2022-11-23T08:10:52.660Z,99526.98
2022-11-23T08:13:24.349Z,99532.23
2022-11-23T08:15:56.055Z,99533.03
2022-11-23T08:18:26.688Z,99532.85
2022-11-23T08:20:59.958Z,99531.71
2022-11-23T08:23:30.693Z,99533.38
2022-11-23T08:26:04.834Z,99530.86
2022-11-23T08:28:38.561Z,99530.41
2022-11-23T08:31:10.243Z,99525.52
2022-11-23T08:33:41.056Z,99517.62
2022-11-23T08:36:11.853Z,99516.15
2022-11-23T08:38:42.345Z,99518.25
2022-11-23T08:41:12.873Z,99521.38
2022-11-23T08:43:43.635Z,99522.98
2022-11-23T08:46:13.999Z,99520.28
2022-11-23T08:48:44.541Z,99523.20
2022-11-23T08:51:15.095Z,99523.98
2022-11-23T08:53:45.548Z,99522.55
2022-11-23T08:56:16.013Z,99528.13
2022-11-23T08:58:46.458Z,99533.05
2022-11-23T09:01:18.198Z,99531.76
2022-11-23T09:03:48.664Z,99527.44
2022-11-23T09:06:19.221Z,99533.92
2022-11-23T09:08:49.980Z,99533.29
2022-11-23T09:11:20.459Z,99542.48
2022-11-23T09:13:50.912Z,99542.93
2022-11-23T09:16:21.956Z,99548.50
2022-11-23T09:18:55.991Z,99550.00
2022-11-23T09:21:30.924Z,99546.88
2022-11-23T09:24:01.708Z,99539.91
2022-11-23T09:26:33.955Z,99534.88
2022-11-23T09:29:04.460Z,99534.02
2022-11-23T09:31:35.372Z,99532.94
2022-11-23T09:34:06.031Z,99531.70
2022-11-23T09:36:36.559Z,99529.51
2022-11-23T09:39:07.346Z,99524.40
2022-11-23T09:41:48.781Z,99521.84
2022-11-23T09:44:24.177Z,99516.83
2022-11-23T09:47:04.767Z,99520.42
2022-11-23T09:49:40.287Z,99513.84
2022-11-23T09:52:15.711Z,99510.18
2022-11-23T09:54:47.522Z,99510.89
2022-11-23T09:57:21.118Z,99512.86
2022-11-23T09:59:54.004Z,99517.18
2022-11-23T10:02:25.685Z,99521.28
2022-11-23T10:04:57.421Z,99521.57
2022-11-23T10:07:36.241Z,99522.13
2022-11-23T10:10:11.277Z,99522.54
2022-11-23T10:12:46.467Z,99523.05
2022-11-23T10:15:22.016Z,99525.02
2022-11-23T10:18:03.296Z,99528.00
2022-11-23T10:20:51.494Z,99532.71
2022-11-23T10:23:28.625Z,99529.42
2022-11-23T10:26:00.385Z,99520.95
2022-11-23T10:28:32.937Z,99513.63
2022-11-23T10:31:06.769Z,99512.07
2022-11-23T10:33:41.164Z,99505.70
2022-11-23T10:36:13.820Z,99506.36
2022-11-23T10:38:45.294Z,99505.61
2022-11-23T10:41:17.104Z,99509.59
2022-11-23T10:43:49.504Z,99508.05
2022-11-23T10:46:38.474Z,99507.15
2022-11-23T10:49:17.906Z,99505.98
2022-11-23T10:51:52.324Z,99502.26
2022-11-23T10:54:25.779Z,99505.44
2022-11-23T10:56:56.713Z,99508.23
2022-11-23T10:59:35.386Z,99507.14
2022-11-23T11:02:15.948Z,99506.39
2022-11-23T11:04:47.476Z,99502.13
2022-11-23T11:07:25.723Z,99508.05
2022-11-23T11:09:57.504Z,99505.78
2022-11-23T11:12:28.563Z,99503.77
2022-11-23T11:15:11.239Z,99502.92
2022-11-23T11:17:42.394Z,99502.96
2022-11-23T11:20:31.520Z,99500.84
2022-11-23T11:23:04.141Z,99500.19
2022-11-23T11:25:37.052Z,99499.42
2022-11-23T11:28:19.682Z,99495.88
2022-11-23T11:30:57.517Z,99492.21
2022-11-23T11:33:36.119Z,99490.96
2022-11-23T11:36:08.153Z,99488.00
2022-11-23T11:38:38.964Z,99481.46
2022-11-23T11:41:11.411Z,99479.70
2022-11-23T11:43:44.578Z,99474.27
2022-11-23T11:46:31.666Z,99473.44
2022-11-23T11:49:07.424Z,99473.23
2022-11-23T11:51:39.594Z,99472.02
2022-11-23T11:54:13.919Z,99471.46
2022-11-23T11:56:45.849Z,99468.86
2022-11-23T11:59:21.427Z,99469.31
2022-11-23T12:01:56.948Z,99470.01
2022-11-23T12:04:32.061Z,99474.87
2022-11-23T12:07:07.030Z,99473.38
2022-11-23T12:09:40.256Z,99472.63
2022-11-23T12:12:14.013Z,99467.94
2022-11-23T12:14:45.387Z,99470.59
2022-11-23T12:17:33.739Z,99469.09
2022-11-23T12:20:10.153Z,99466.38
2022-11-23T12:22:47.008Z,99463.14
2022-11-23T12:25:25.779Z,99462.84
2022-11-23T12:28:02.678Z,99460.57
2022-11-23T12:30:41.175Z,99454.75
2022-11-23T12:33:32.392Z,99456.34
2022-11-23T12:36:14.962Z,99450.24
2022-11-23T12:38:49.219Z,99447.29
2022-11-23T12:41:29.860Z,99442.39
2022-11-23T12:44:21.356Z,99439.98
2022-11-23T12:46:55.957Z,99438.95
2022-11-23T12:49:39.065Z,99438.57
2022-11-23T12:52:20.414Z,99440.41
2022-11-23T12:54:55.859Z,99445.89
2022-11-23T12:57:29.295Z,99451.22
2022-11-23T13:00:03.424Z,99458.02
2022-11-23T13:02:50.515Z,99454.95
2022-11-23T13:05:35.662Z,99453.84
2022-11-23T13:08:15.269Z,99452.17
2022-11-23T13:10:54.415Z,99451.83
2022-11-23T13:13:34.869Z,99453.09
2022-11-23T13:16:30.447Z,99455.30
2022-11-23T13:19:08.215Z,99459.70
2022-11-23T13:21:40.001Z,99457.38
2022-11-23T13:24:24.048Z,99457.16
2022-11-23T13:27:07.968Z,99462.38
2022-11-23T13:29:58.850Z,99465.98
2022-11-23T13:32:51.879Z,99474.32
2022-11-23T13:35:39.742Z,99479.48
2022-11-23T13:38:27.578Z,99482.61
2022-11-23T13:40:58.111Z,99480.96
2022-11-23T13:43:30.378Z,99483.98
2022-11-23T13:46:13.394Z,99481.69
2022-11-23T13:48:56.767Z,99479.98
2022-11-23T13:51:29.771Z,99487.02
2022-11-23T13:54:02.674Z,99489.70
2022-11-23T13:56:35.232Z,99495.51
2022-11-23T13:59:23.457Z,99499.81
2022-11-23T14:02:00.942Z,99495.23
2022-11-23T14:04:32.979Z,99494.34
2022-11-23T14:07:07.201Z,99494.85
2022-11-23T14:09:44.768Z,99499.32
2022-11-23T14:12:19.482Z,99502.17
2022-11-23T14:14:52.870Z,99506.20
2022-11-23T14:17:42.139Z,99515.35
2022-11-23T14:20:28.667Z,99520.27
2022-11-23T14:23:11.537Z,99516.81
2022-11-23T14:25:47.059Z,99510.47
2022-11-23T14:28:24.424Z,99506.20
2022-11-23T14:31:01.253Z,99504.83
2022-11-23T14:33:38.055Z,99504.66
2022-11-23T14:36:21.587Z,99506.69
2022-11-23T14:39:21.125Z,99517.69
2022-11-23T14:41:54.929Z,99523.05
2022-11-23T14:44:27.381Z,99520.96
2022-11-23T14:47:04.555Z,99529.58
2022-11-23T14:49:35.580Z,99526.48
2022-11-23T14:52:06.804Z,99530.02
2022-11-23T14:54:38.282Z,99534.96
2022-11-23T14:57:13.058Z,99537.98
2022-11-23T14:59:48.503Z,99537.05
2022-11-23T15:02:21.847Z,99535.52
2022-11-23T15:04:59.147Z,99539.95
2022-11-23T15:07:35.472Z,99544.48
2022-11-23T15:10:08.852Z,99551.27
2022-11-23T15:12:44.193Z,99547.27
2022-11-23T15:15:19.509Z,99544.36
2022-11-23T15:17:54.060Z,99543.16
2022-11-23T15:20:26.125Z,99543.77
2022-11-23T15:22:56.707Z,99534.75
2022-11-23T15:25:28.341Z,99529.38
2022-11-23T15:27:58.787Z,99535.96
2022-11-23T15:30:30.780Z,99535.02
2022-11-23T15:33:02.507Z,99525.40
2022-11-23T15:35:34.473Z,99525.92
2022-11-23T15:38:06.564Z,99519.62
2022-11-23T15:40:38.325Z,99514.41
2022-11-23T15:43:12.924Z,99515.92
2022-11-23T15:45:57.252Z,99520.58
2022-11-23T15:48:31.213Z,99521.42
2022-11-23T15:51:02.722Z,99523.17
2022-11-23T15:53:33.935Z,99529.01
2022-11-23T15:56:05.898Z,99534.48
2022-11-23T15:58:36.535Z,99537.09
2022-11-23T16:01:12.678Z,99533.30
2022-11-23T16:03:52.517Z,99525.98
2022-11-23T16:06:29.470Z,99530.65
2022-11-23T16:09:00.129Z,99527.34
2022-11-23T16:11:32.251Z,99531.98
2022-11-23T16:14:15.395Z,99528.68
2022-11-23T16:16:47.019Z,99517.34
2022-11-23T16:19:29.926Z,99516.59
2022-11-23T16:22:02.765Z,99518.73
2022-11-23T16:24:34.633Z,99512.20
2022-11-23T16:27:15.105Z,99516.56
2022-11-23T16:29:50.936Z,99521.35
2022-11-23T16:32:25.636Z,99515.60
2022-11-23T16:34:59.031Z,99514.65
2022-11-23T16:37:29.486Z,99518.67
2022-11-23T16:40:00.167Z,99524.59
2022-11-23T16:42:30.623Z,99532.41
2022-11-23T16:45:01.077Z,99536.21
2022-11-23T16:47:31.552Z,99530.29
2022-11-23T16:50:02.210Z,99527.98
2022-11-23T16:52:32.563Z,99533.84
2022-11-23T16:55:03.337Z,99534.26
2022-11-23T16:57:35.210Z,99535.08
2022-11-23T17:00:07.665Z,99528.54
2022-11-23T17:02:38.173Z,99525.77
2022-11-23T17:05:14.068Z,99527.04
2022-11-23T17:07:44.613Z,99530.54
2022-11-23T17:10:15.569Z,99527.27
2022-11-23T17:12:48.244Z,99537.41
2022-11-23T17:15:19.157Z,99541.13
2022-11-23T17:17:49.687Z,99539.68
2022-11-23T17:20:20.754Z,99541.66
2022-11-23T17:22:52.116Z,99539.83
2022-11-23T17:25:22.660Z,99539.83
2022-11-23T17:27:53.418Z,99541.42
2022-11-23T17:30:23.897Z,99543.70
2022-11-23T17:32:54.630Z,99550.52
2022-11-23T17:35:25.083Z,99549.88
2022-11-23T17:37:55.639Z,99553.48
2022-11-23T17:40:26.502Z,99564.27
2022-11-23T17:42:56.929Z,99558.00
2022-11-23T17:45:27.668Z,99564.27
2022-11-23T17:48:03.147Z,99563.91
2022-11-23T17:50:34.152Z,99564.52
2022-11-23T17:53:04.604Z,99559.05
2022-11-23T17:55:35.047Z,99555.70
2022-11-23T17:58:05.969Z,99550.69
2022-11-23T18:00:37.856Z,99550.07
2022-11-23T18:03:08.683Z,99547.45
2022-11-23T18:05:39.538Z,99542.58
2022-11-23T18:08:10.705Z,99548.23
2022-11-23T18:10:41.129Z,99552.77
2022-11-23T18:13:11.581Z,99557.34
2022-11-23T18:15:42.075Z,99555.86
2022-11-23T18:18:12.488Z,99559.86
2022-11-23T18:20:42.966Z,99563.34
2022-11-23T18:23:13.694Z,99562.62
2022-11-23T18:25:45.741Z,99561.69
2022-11-23T18:28:18.862Z,99560.11
2022-11-23T18:30:49.241Z,99557.77
2022-11-23T18:33:19.685Z,99563.88
2022-11-23T18:35:50.168Z,99571.83
2022-11-23T18:38:20.643Z,99570.75
2022-11-23T18:40:51.300Z,99575.13
2022-11-23T18:43:21.880Z,99576.08
2022-11-23T18:45:52.874Z,99575.20
2022-11-23T18:48:23.452Z,99580.54
2022-11-23T18:50:54.347Z,99582.03
2022-11-23T18:53:24.827Z,99582.35
2022-11-23T18:56:00.310Z,99577.17
2022-11-23T18:58:34.047Z,99576.11
2022-11-23T19:01:12.142Z,99568.71
2022-11-23T19:03:43.388Z,99569.49
2022-11-23T19:06:14.468Z,99562.76
2022-11-23T19:08:45.637Z,99563.88
2022-11-23T19:11:18.035Z,99565.45
2022-11-23T19:13:50.230Z,99569.63
2022-11-23T19:16:22.098Z,99567.23
2022-11-23T19:18:55.845Z,99566.17
2022-11-23T19:21:27.271Z,99558.39
2022-11-23T19:23:58.568Z,99559.98
2022-11-23T19:26:30.147Z,99559.91
2022-11-23T19:29:00.677Z,99559.85
2022-11-23T19:31:31.946Z,99559.09
2022-11-23T19:34:03.863Z,99557.13
2022-11-23T19:36:36.500Z,99550.17
2022-11-23T19:39:08.455Z,99549.96
2022-11-23T19:41:38.959Z,99550.81
2022-11-23T19:44:10.515Z,99542.39
2022-11-23T19:46:41.028Z,99543.30
2022-11-23T19:49:11.474Z,99549.16
2022-11-23T19:51:41.922Z,99557.64
2022-11-23T19:54:12.303Z,99560.77
2022-11-23T19:56:42.759Z,99558.31
2022-11-23T19:59:13.159Z,99560.70
2022-11-23T20:01:43.654Z,99557.44
2022-11-23T20:04:14.215Z,99558.10
2022-11-23T20:06:44.718Z,99555.66
2022-11-23T20:09:19.352Z,99557.25
2022-11-23T20:11:51.564Z,99557.92
2022-11-23T20:14:22.300Z,99564.20
2022-11-23T20:16:52.625Z,99565.73
2022-11-23T20:19:23.053Z,99570.25
2022-11-23T20:21:53.706Z,99572.57
2022-11-23T20:24:24.134Z,99570.58
2022-11-23T20:26:54.716Z,99570.09
2022-11-23T20:29:25.118Z,99571.34
2022-11-23T20:31:55.709Z,99575.69
2022-11-23T20:34:26.529Z,99580.59
2022-11-23T20:36:57.296Z,99585.20
2022-11-23T20:39:27.904Z,99581.19
2022-11-23T20:41:58.817Z,99582.01
2022-11-23T20:44:33.686Z,99579.27
2022-11-23T20:47:04.713Z,99571.20
2022-11-23T20:49:35.373Z,99566.31
2022-11-23T20:52:05.905Z,99565.09
2022-11-23T20:54:36.726Z,99571.17
2022-11-23T20:57:07.320Z,99569.55
2022-11-23T20:59:37.720Z,99576.75
2022-11-23T21:02:09.529Z,99577.62
2022-11-23T21:04:40.572Z,99577.52
2022-11-23T21:07:11.129Z,99578.05
2022-11-23T21:09:41.645Z,99574.58
2022-11-23T21:12:29.751Z,99578.32
2022-11-23T21:15:00.484Z,99573.02
2022-11-23T21:17:31.274Z,99575.73
2022-11-23T21:20:01.722Z,99579.73
2022-11-23T21:22:32.150Z,99578.21
2022-11-23T21:25:02.833Z,99577.92
2022-11-23T21:27:33.414Z,99583.55
2022-11-23T21:30:04.046Z,99585.40
2022-11-23T21:32:34.554Z,99588.66
2022-11-23T21:35:06.079Z,99592.13
2022-11-23T21:37:36.865Z,99591.56
2022-11-23T21:40:09.423Z,99598.55
2022-11-23T21:42:39.845Z,99601.80
2022-11-23T21:45:11.184Z,99601.16
2022-11-23T21:47:41.673Z,99599.42
2022-11-23T21:50:12.636Z,99609.45
2022-11-23T21:52:43.067Z,99613.61
2022-11-23T21:55:14.501Z,99612.13
2022-11-23T21:57:45.301Z,99609.54
2022-11-23T22:00:16.621Z,99607.45
2022-11-23T22:02:47.193Z,99608.66
2022-11-23T22:05:17.738Z,99612.38
2022-11-23T22:08:13.661Z,99614.58
2022-11-23T22:10:38.879Z,99619.95
2022-11-23T22:13:09.411Z,99626.24
2022-11-23T22:15:39.912Z,99626.77
2022-11-23T22:18:10.623Z,99628.11
2022-11-23T22:20:41.150Z,99630.91
2022-11-23T22:23:11.886Z,99633.98
2022-11-23T22:26:09.031Z,99638.07
2022-11-23T22:28:42.514Z,99636.69
2022-11-23T22:31:17.172Z,99636.66
2022-11-23T22:33:50.126Z,99630.55
2022-11-23T22:36:23.737Z,99626.19
2022-11-23T22:39:01.755Z,99620.99
2022-11-23T22:41:37.252Z,99617.77
2022-11-23T22:44:09.234Z,99611.85
2022-11-23T22:46:41.669Z,99611.23
2022-11-23T22:49:13.862Z,99616.52
2022-11-23T22:51:45.980Z,99622.95
2022-11-23T22:54:18.331Z,99626.98
2022-11-23T22:56:50.397Z,99628.58
2022-11-23T22:59:22.544Z,99626.92
2022-11-23T23:01:55.037Z,99623.80
2022-11-23T23:04:27.831Z,99623.24
2022-11-23T23:06:59.889Z,99629.87
2022-11-23T23:09:31.952Z,99628.42
2022-11-23T23:12:04.410Z,99623.82
2022-11-23T23:14:37.082Z,99620.84
2022-11-23T23:17:09.227Z,99617.89
2022-11-23T23:19:41.495Z,99619.05
2022-11-23T23:22:13.536Z,99619.85
2022-11-23T23:24:46.163Z,99628.36
2022-11-23T23:27:18.263Z,99625.86
2022-11-23T23:29:50.373Z,99625.17
2022-11-23T23:32:22.439Z,99635.48
2022-11-23T23:34:54.529Z,99639.39
2022-11-23T23:37:26.547Z,99640.33
2022-11-23T23:39:58.532Z,99637.24
2022-11-23T23:42:30.573Z,99631.38
2022-11-23T23:45:03.149Z,99627.88
2022-11-23T23:47:35.268Z,99621.64
2022-11-23T23:50:09.099Z,99621.77
2022-11-23T23:52:41.268Z,99623.82
2022-11-23T23:55:13.513Z,99624.13
2022-11-23T23:57:45.487Z,99627.92
